sensor_id;sensor_type;location;lat;lon;timestamp;P1;durP1;ratioP1;P2;durP2;ratioP2
58384;SDS011;44185;47.844;8.966;2022-12-24T00:02:15;1.75;;;1.50;;
58384;SDS011;44185;47.844;8.966;2022-12-24T00:04:41;2.10;;;0.98;;
58384;SDS011;44185;47.844;8.966;2022-12-24T00:07:06;3.83;;;1.25;;
58384;SDS011;44185;47.844;8.966;2022-12-24T00:09:32;3.40;;;1.13;;
58384;SDS011;44185;47.844;8.966;2022-12-24T00:11:57;0.93;;;0.93;;
58384;SDS011;44185;47.844;8.966;2022-12-24T00:14:23;2.13;;;0.82;;
58384;SDS011;44185;47.844;8.966;2022-12-24T00:16:49;2.25;;;0.90;;
58384;SDS011;44185;47.844;8.966;2022-12-24T00:19:15;3.47;;;1.13;;
58384;SDS011;44185;47.844;8.966;2022-12-24T00:21:41;6.15;;;2.53;;
58384;SDS011;44185;47.844;8.966;2022-12-24T00:24:06;5.35;;;2.15;;
58384;SDS011;44185;47.844;8.966;2022-12-24T00:26:32;10.35;;;3.17;;
58384;SDS011;44185;47.844;8.966;2022-12-24T00:28:58;8.07;;;2.53;;
58384;SDS011;44185;47.844;8.966;2022-12-24T00:31:24;8.25;;;2.55;;
58384;SDS011;44185;47.844;8.966;2022-12-24T00:33:49;5.80;;;2.40;;
58384;SDS011;44185;47.844;8.966;2022-12-24T00:36:16;9.25;;;4.47;;
58384;SDS011;44185;47.844;8.966;2022-12-24T00:38:42;4.03;;;1.60;;
58384;SDS011;44185;47.844;8.966;2022-12-24T00:41:08;3.42;;;1.50;;
58384;SDS011;44185;47.844;8.966;2022-12-24T00:43:35;4.28;;;1.75;;
58384;SDS011;44185;47.844;8.966;2022-12-24T00:46:00;5.47;;;1.63;;
58384;SDS011;44185;47.844;8.966;2022-12-24T00:48:26;2.45;;;1.10;;
58384;SDS011;44185;47.844;8.966;2022-12-24T00:50:51;3.20;;;1.40;;
58384;SDS011;44185;47.844;8.966;2022-12-24T00:53:18;4.60;;;1.65;;
58384;SDS011;44185;47.844;8.966;2022-12-24T00:55:44;2.85;;;1.20;;
58384;SDS011;44185;47.844;8.966;2022-12-24T00:58:09;3.47;;;1.27;;
58384;SDS011;44185;47.844;8.966;2022-12-24T01:00:35;3.17;;;1.20;;
58384;SDS011;44185;47.844;8.966;2022-12-24T01:03:00;5.13;;;1.15;;
58384;SDS011;44185;47.844;8.966;2022-12-24T01:05:26;2.80;;;1.10;;
58384;SDS011;44185;47.844;8.966;2022-12-24T01:07:51;2.60;;;1.05;;
58384;SDS011;44185;47.844;8.966;2022-12-24T01:10:18;4.38;;;1.35;;
58384;SDS011;44185;47.844;8.966;2022-12-24T01:12:44;1.73;;;0.80;;
58384;SDS011;44185;47.844;8.966;2022-12-24T01:15:11;3.78;;;1.13;;
58384;SDS011;44185;47.844;8.966;2022-12-24T01:17:37;2.40;;;1.17;;
58384;SDS011;44185;47.844;8.966;2022-12-24T01:20:04;3.25;;;1.30;;
58384;SDS011;44185;47.844;8.966;2022-12-24T01:22:31;0.80;;;0.80;;
58384;SDS011;44185;47.844;8.966;2022-12-24T01:24:57;3.83;;;1.23;;
58384;SDS011;44185;47.844;8.966;2022-12-24T01:27:23;2.00;;;0.93;;
58384;SDS011;44185;47.844;8.966;2022-12-24T01:29:49;4.82;;;1.33;;
58384;SDS011;44185;47.844;8.966;2022-12-24T01:32:14;1.92;;;0.85;;
58384;SDS011;44185;47.844;8.966;2022-12-24T01:34:40;3.30;;;1.50;;
58384;SDS011;44185;47.844;8.966;2022-12-24T01:37:06;2.72;;;1.30;;
58384;SDS011;44185;47.844;8.966;2022-12-24T01:39:31;7.78;;;1.60;;
58384;SDS011;44185;47.844;8.966;2022-12-24T01:41:57;3.92;;;1.20;;
58384;SDS011;44185;47.844;8.966;2022-12-24T01:44:24;5.72;;;1.10;;
58384;SDS011;44185;47.844;8.966;2022-12-24T01:46:52;2.42;;;1.20;;
58384;SDS011;44185;47.844;8.966;2022-12-24T01:49:20;1.57;;;0.90;;
58384;SDS011;44185;47.844;8.966;2022-12-24T01:51:46;3.30;;;1.38;;
58384;SDS011;44185;47.844;8.966;2022-12-24T01:54:16;1.23;;;0.97;;
58384;SDS011;44185;47.844;8.966;2022-12-24T01:56:45;6.32;;;1.50;;
58384;SDS011;44185;47.844;8.966;2022-12-24T01:59:15;6.05;;;1.30;;
58384;SDS011;44185;47.844;8.966;2022-12-24T02:01:46;2.25;;;0.98;;
58384;SDS011;44185;47.844;8.966;2022-12-24T02:04:15;4.15;;;1.15;;
58384;SDS011;44185;47.844;8.966;2022-12-24T02:06:48;3.83;;;1.27;;
58384;SDS011;44185;47.844;8.966;2022-12-24T02:09:14;3.15;;;1.17;;
58384;SDS011;44185;47.844;8.966;2022-12-24T02:11:39;7.47;;;1.75;;
58384;SDS011;44185;47.844;8.966;2022-12-24T02:14:06;3.60;;;1.15;;
58384;SDS011;44185;47.844;8.966;2022-12-24T02:16:35;3.70;;;1.40;;
58384;SDS011;44185;47.844;8.966;2022-12-24T02:19:14;2.60;;;1.38;;
58384;SDS011;44185;47.844;8.966;2022-12-24T02:21:58;4.57;;;1.35;;
58384;SDS011;44185;47.844;8.966;2022-12-24T02:24:35;4.05;;;1.30;;
58384;SDS011;44185;47.844;8.966;2022-12-24T02:27:18;4.55;;;1.55;;
58384;SDS011;44185;47.844;8.966;2022-12-24T02:30:02;5.03;;;1.65;;
58384;SDS011;44185;47.844;8.966;2022-12-24T02:32:36;3.80;;;1.60;;
58384;SDS011;44185;47.844;8.966;2022-12-24T02:35:10;11.65;;;2.05;;
58384;SDS011;44185;47.844;8.966;2022-12-24T02:37:40;2.78;;;1.13;;
58384;SDS011;44185;47.844;8.966;2022-12-24T02:40:10;5.70;;;1.85;;
58384;SDS011;44185;47.844;8.966;2022-12-24T02:42:41;4.78;;;1.60;;
58384;SDS011;44185;47.844;8.966;2022-12-24T02:45:13;5.57;;;1.80;;
58384;SDS011;44185;47.844;8.966;2022-12-24T02:47:40;3.90;;;1.88;;
58384;SDS011;44185;47.844;8.966;2022-12-24T02:50:12;7.40;;;2.13;;
58384;SDS011;44185;47.844;8.966;2022-12-24T02:52:40;4.85;;;1.67;;
58384;SDS011;44185;47.844;8.966;2022-12-24T02:55:08;5.22;;;1.42;;
58384;SDS011;44185;47.844;8.966;2022-12-24T02:57:42;3.70;;;1.50;;
58384;SDS011;44185;47.844;8.966;2022-12-24T03:00:17;4.03;;;1.30;;
58384;SDS011;44185;47.844;8.966;2022-12-24T03:02:51;4.80;;;1.30;;
58384;SDS011;44185;47.844;8.966;2022-12-24T03:05:31;5.82;;;1.45;;
58384;SDS011;44185;47.844;8.966;2022-12-24T03:08:05;2.80;;;0.95;;
58384;SDS011;44185;47.844;8.966;2022-12-24T03:10:39;3.45;;;1.02;;
58384;SDS011;44185;47.844;8.966;2022-12-24T03:13:11;3.72;;;1.77;;
58384;SDS011;44185;47.844;8.966;2022-12-24T03:15:41;1.40;;;1.33;;
58384;SDS011;44185;47.844;8.966;2022-12-24T03:18:08;3.42;;;1.17;;
58384;SDS011;44185;47.844;8.966;2022-12-24T03:20:36;2.72;;;1.13;;
58384;SDS011;44185;47.844;8.966;2022-12-24T03:23:04;1.35;;;1.00;;
58384;SDS011;44185;47.844;8.966;2022-12-24T03:25:29;3.97;;;1.23;;
58384;SDS011;44185;47.844;8.966;2022-12-24T03:27:57;2.38;;;1.08;;
58384;SDS011;44185;47.844;8.966;2022-12-24T03:30:26;3.63;;;1.17;;
58384;SDS011;44185;47.844;8.966;2022-12-24T03:32:53;2.83;;;1.55;;
58384;SDS011;44185;47.844;8.966;2022-12-24T03:35:18;4.47;;;1.40;;
58384;SDS011;44185;47.844;8.966;2022-12-24T03:37:44;4.38;;;1.15;;
58384;SDS011;44185;47.844;8.966;2022-12-24T03:40:10;6.13;;;1.05;;
58384;SDS011;44185;47.844;8.966;2022-12-24T03:42:36;3.80;;;1.02;;
58384;SDS011;44185;47.844;8.966;2022-12-24T03:45:01;1.77;;;0.80;;
58384;SDS011;44185;47.844;8.966;2022-12-24T03:47:27;5.38;;;1.50;;
58384;SDS011;44185;47.844;8.966;2022-12-24T03:49:53;2.50;;;1.27;;
58384;SDS011;44185;47.844;8.966;2022-12-24T03:52:19;2.28;;;0.98;;
58384;SDS011;44185;47.844;8.966;2022-12-24T03:54:44;2.60;;;1.13;;
58384;SDS011;44185;47.844;8.966;2022-12-24T03:57:10;1.92;;;1.10;;
58384;SDS011;44185;47.844;8.966;2022-12-24T03:59:35;2.60;;;0.70;;
58384;SDS011;44185;47.844;8.966;2022-12-24T04:02:00;1.90;;;1.02;;
58384;SDS011;44185;47.844;8.966;2022-12-24T04:04:26;2.30;;;1.25;;
58384;SDS011;44185;47.844;8.966;2022-12-24T04:06:53;3.22;;;1.10;;
58384;SDS011;44185;47.844;8.966;2022-12-24T04:09:18;5.95;;;1.67;;
58384;SDS011;44185;47.844;8.966;2022-12-24T04:11:44;4.22;;;1.45;;
58384;SDS011;44185;47.844;8.966;2022-12-24T04:14:09;4.72;;;1.23;;
58384;SDS011;44185;47.844;8.966;2022-12-24T04:16:35;1.92;;;1.13;;
58384;SDS011;44185;47.844;8.966;2022-12-24T04:19:00;4.28;;;1.25;;
58384;SDS011;44185;47.844;8.966;2022-12-24T04:21:26;5.43;;;1.40;;
58384;SDS011;44185;47.844;8.966;2022-12-24T04:23:52;2.58;;;1.17;;
58384;SDS011;44185;47.844;8.966;2022-12-24T04:26:18;3.03;;;1.15;;
58384;SDS011;44185;47.844;8.966;2022-12-24T04:28:44;4.88;;;1.45;;
58384;SDS011;44185;47.844;8.966;2022-12-24T04:31:11;6.78;;;1.77;;
58384;SDS011;44185;47.844;8.966;2022-12-24T04:33:37;3.22;;;1.13;;
58384;SDS011;44185;47.844;8.966;2022-12-24T04:36:04;4.70;;;1.50;;
58384;SDS011;44185;47.844;8.966;2022-12-24T04:38:30;4.18;;;1.30;;
58384;SDS011;44185;47.844;8.966;2022-12-24T04:41:00;4.65;;;1.27;;
58384;SDS011;44185;47.844;8.966;2022-12-24T04:43:27;5.70;;;1.45;;
58384;SDS011;44185;47.844;8.966;2022-12-24T04:45:53;4.63;;;1.50;;
58384;SDS011;44185;47.844;8.966;2022-12-24T04:48:18;4.10;;;1.38;;
58384;SDS011;44185;47.844;8.966;2022-12-24T04:50:44;4.20;;;1.33;;
58384;SDS011;44185;47.844;8.966;2022-12-24T04:53:09;2.75;;;1.40;;
58384;SDS011;44185;47.844;8.966;2022-12-24T04:55:35;9.52;;;1.77;;
58384;SDS011;44185;47.844;8.966;2022-12-24T04:58:02;6.97;;;1.67;;
58384;SDS011;44185;47.844;8.966;2022-12-24T05:00:27;3.42;;;1.17;;
58384;SDS011;44185;47.844;8.966;2022-12-24T05:02:52;3.13;;;1.55;;
58384;SDS011;44185;47.844;8.966;2022-12-24T05:05:18;3.55;;;1.60;;
58384;SDS011;44185;47.844;8.966;2022-12-24T05:07:44;0.85;;;0.80;;
58384;SDS011;44185;47.844;8.966;2022-12-24T05:10:10;4.03;;;1.08;;
58384;SDS011;44185;47.844;8.966;2022-12-24T05:12:35;3.28;;;1.30;;
58384;SDS011;44185;47.844;8.966;2022-12-24T05:15:02;5.30;;;1.23;;
58384;SDS011;44185;47.844;8.966;2022-12-24T05:17:28;3.33;;;1.95;;
58384;SDS011;44185;47.844;8.966;2022-12-24T05:19:53;6.45;;;1.40;;
58384;SDS011;44185;47.844;8.966;2022-12-24T05:22:19;4.75;;;2.13;;
58384;SDS011;44185;47.844;8.966;2022-12-24T05:24:44;5.15;;;1.27;;
58384;SDS011;44185;47.844;8.966;2022-12-24T05:27:10;1.15;;;1.00;;
58384;SDS011;44185;47.844;8.966;2022-12-24T05:29:35;4.55;;;1.67;;
58384;SDS011;44185;47.844;8.966;2022-12-24T05:32:02;5.35;;;1.60;;
58384;SDS011;44185;47.844;8.966;2022-12-24T05:34:27;3.53;;;1.48;;
58384;SDS011;44185;47.844;8.966;2022-12-24T05:36:53;6.03;;;1.45;;
58384;SDS011;44185;47.844;8.966;2022-12-24T05:39:18;8.35;;;1.60;;
58384;SDS011;44185;47.844;8.966;2022-12-24T05:41:44;10.05;;;2.08;;
58384;SDS011;44185;47.844;8.966;2022-12-24T05:44:10;8.57;;;2.25;;
58384;SDS011;44185;47.844;8.966;2022-12-24T05:46:36;5.25;;;1.73;;
58384;SDS011;44185;47.844;8.966;2022-12-24T05:49:02;4.07;;;1.30;;
58384;SDS011;44185;47.844;8.966;2022-12-24T05:51:28;5.55;;;1.50;;
58384;SDS011;44185;47.844;8.966;2022-12-24T05:53:53;6.10;;;1.13;;
58384;SDS011;44185;47.844;8.966;2022-12-24T05:56:19;7.88;;;1.83;;
58384;SDS011;44185;47.844;8.966;2022-12-24T05:58:46;8.13;;;2.08;;
58384;SDS011;44185;47.844;8.966;2022-12-24T06:01:12;9.18;;;2.75;;
58384;SDS011;44185;47.844;8.966;2022-12-24T06:03:38;13.10;;;2.03;;
58384;SDS011;44185;47.844;8.966;2022-12-24T06:06:06;4.18;;;1.52;;
58384;SDS011;44185;47.844;8.966;2022-12-24T06:08:33;9.50;;;1.48;;
58384;SDS011;44185;47.844;8.966;2022-12-24T06:11:00;5.60;;;1.70;;
58384;SDS011;44185;47.844;8.966;2022-12-24T06:13:27;9.95;;;1.60;;
58384;SDS011;44185;47.844;8.966;2022-12-24T06:15:53;8.30;;;2.30;;
58384;SDS011;44185;47.844;8.966;2022-12-24T06:18:19;19.30;;;8.07;;
58384;SDS011;44185;47.844;8.966;2022-12-24T06:20:44;28.45;;;12.95;;
58384;SDS011;44185;47.844;8.966;2022-12-24T06:23:11;16.92;;;7.72;;
58384;SDS011;44185;47.844;8.966;2022-12-24T06:25:37;16.05;;;5.88;;
58384;SDS011;44185;47.844;8.966;2022-12-24T06:28:02;16.43;;;6.47;;
58384;SDS011;44185;47.844;8.966;2022-12-24T06:30:28;13.10;;;5.15;;
58384;SDS011;44185;47.844;8.966;2022-12-24T06:32:53;19.33;;;8.98;;
58384;SDS011;44185;47.844;8.966;2022-12-24T06:35:18;14.75;;;6.95;;
58384;SDS011;44185;47.844;8.966;2022-12-24T06:37:44;13.10;;;4.38;;
58384;SDS011;44185;47.844;8.966;2022-12-24T06:40:11;13.02;;;4.65;;
58384;SDS011;44185;47.844;8.966;2022-12-24T06:42:36;10.43;;;2.75;;
58384;SDS011;44185;47.844;8.966;2022-12-24T06:45:02;15.90;;;4.22;;
58384;SDS011;44185;47.844;8.966;2022-12-24T06:47:28;7.93;;;2.42;;
58384;SDS011;44185;47.844;8.966;2022-12-24T06:49:53;5.15;;;2.10;;
58384;SDS011;44185;47.844;8.966;2022-12-24T06:52:19;6.43;;;1.95;;
58384;SDS011;44185;47.844;8.966;2022-12-24T06:54:44;3.65;;;1.65;;
58384;SDS011;44185;47.844;8.966;2022-12-24T06:57:14;11.73;;;2.17;;
58384;SDS011;44185;47.844;8.966;2022-12-24T06:59:39;4.75;;;1.52;;
58384;SDS011;44185;47.844;8.966;2022-12-24T07:02:05;10.70;;;2.13;;
58384;SDS011;44185;47.844;8.966;2022-12-24T07:04:30;5.78;;;1.50;;
58384;SDS011;44185;47.844;8.966;2022-12-24T07:06:56;3.22;;;1.38;;
58384;SDS011;44185;47.844;8.966;2022-12-24T07:09:21;9.65;;;1.95;;
58384;SDS011;44185;47.844;8.966;2022-12-24T07:11:47;4.45;;;1.65;;
58384;SDS011;44185;47.844;8.966;2022-12-24T07:14:13;7.70;;;1.85;;
58384;SDS011;44185;47.844;8.966;2022-12-24T07:16:39;6.68;;;1.65;;
58384;SDS011;44185;47.844;8.966;2022-12-24T07:19:04;5.15;;;1.75;;
58384;SDS011;44185;47.844;8.966;2022-12-24T07:21:30;4.82;;;1.98;;
58384;SDS011;44185;47.844;8.966;2022-12-24T07:23:55;3.88;;;1.33;;
58384;SDS011;44185;47.844;8.966;2022-12-24T07:26:21;4.32;;;1.40;;
58384;SDS011;44185;47.844;8.966;2022-12-24T07:28:46;5.15;;;1.73;;
58384;SDS011;44185;47.844;8.966;2022-12-24T07:31:13;6.60;;;1.65;;
58384;SDS011;44185;47.844;8.966;2022-12-24T07:33:38;4.25;;;1.42;;
58384;SDS011;44185;47.844;8.966;2022-12-24T07:36:05;8.73;;;2.35;;
58384;SDS011;44185;47.844;8.966;2022-12-24T07:38:32;9.60;;;2.33;;
58384;SDS011;44185;47.844;8.966;2022-12-24T07:40:59;10.60;;;2.42;;
58384;SDS011;44185;47.844;8.966;2022-12-24T07:43:25;7.65;;;1.95;;
58384;SDS011;44185;47.844;8.966;2022-12-24T07:45:53;5.28;;;1.88;;
58384;SDS011;44185;47.844;8.966;2022-12-24T07:48:21;7.20;;;1.65;;
58384;SDS011;44185;47.844;8.966;2022-12-24T07:50:47;8.53;;;2.10;;
58384;SDS011;44185;47.844;8.966;2022-12-24T07:53:13;6.80;;;1.30;;
58384;SDS011;44185;47.844;8.966;2022-12-24T07:55:38;17.55;;;2.80;;
58384;SDS011;44185;47.844;8.966;2022-12-24T07:58:03;5.10;;;1.55;;
58384;SDS011;44185;47.844;8.966;2022-12-24T08:00:29;3.90;;;1.13;;
58384;SDS011;44185;47.844;8.966;2022-12-24T08:02:54;5.57;;;1.80;;
58384;SDS011;44185;47.844;8.966;2022-12-24T08:05:21;2.53;;;1.10;;
58384;SDS011;44185;47.844;8.966;2022-12-24T08:07:47;9.43;;;2.38;;
58384;SDS011;44185;47.844;8.966;2022-12-24T08:10:12;4.43;;;1.60;;
58384;SDS011;44185;47.844;8.966;2022-12-24T08:12:38;7.15;;;1.77;;
58384;SDS011;44185;47.844;8.966;2022-12-24T08:15:03;6.15;;;2.25;;
58384;SDS011;44185;47.844;8.966;2022-12-24T08:17:29;7.90;;;2.22;;
58384;SDS011;44185;47.844;8.966;2022-12-24T08:19:55;6.82;;;1.95;;
58384;SDS011;44185;47.844;8.966;2022-12-24T08:22:25;6.32;;;1.67;;
58384;SDS011;44185;47.844;8.966;2022-12-24T08:24:50;14.43;;;4.67;;
58384;SDS011;44185;47.844;8.966;2022-12-24T08:27:15;2.80;;;1.05;;
58384;SDS011;44185;47.844;8.966;2022-12-24T08:29:41;8.77;;;2.33;;
58384;SDS011;44185;47.844;8.966;2022-12-24T08:32:06;12.05;;;3.58;;
58384;SDS011;44185;47.844;8.966;2022-12-24T08:34:32;5.88;;;1.85;;
58384;SDS011;44185;47.844;8.966;2022-12-24T08:36:57;4.05;;;1.48;;
58384;SDS011;44185;47.844;8.966;2022-12-24T08:39:24;5.18;;;1.60;;
58384;SDS011;44185;47.844;8.966;2022-12-24T08:41:49;3.75;;;1.23;;
58384;SDS011;44185;47.844;8.966;2022-12-24T08:44:15;3.40;;;0.88;;
58384;SDS011;44185;47.844;8.966;2022-12-24T08:46:40;2.78;;;1.45;;
58384;SDS011;44185;47.844;8.966;2022-12-24T08:49:06;2.65;;;0.88;;
58384;SDS011;44185;47.844;8.966;2022-12-24T08:51:31;1.85;;;0.95;;
58384;SDS011;44185;47.844;8.966;2022-12-24T08:53:59;3.20;;;1.30;;
58384;SDS011;44185;47.844;8.966;2022-12-24T08:56:26;2.08;;;1.13;;
58384;SDS011;44185;47.844;8.966;2022-12-24T08:58:51;6.15;;;1.33;;
58384;SDS011;44185;47.844;8.966;2022-12-24T09:01:18;0.80;;;0.80;;
58384;SDS011;44185;47.844;8.966;2022-12-24T09:03:44;2.78;;;1.60;;
58384;SDS011;44185;47.844;8.966;2022-12-24T09:06:10;4.28;;;1.35;;
58384;SDS011;44185;47.844;8.966;2022-12-24T09:08:36;2.38;;;1.20;;
58384;SDS011;44185;47.844;8.966;2022-12-24T09:11:03;3.92;;;1.02;;
58384;SDS011;44185;47.844;8.966;2022-12-24T09:13:31;1.40;;;1.05;;
58384;SDS011;44185;47.844;8.966;2022-12-24T09:15:56;0.83;;;0.60;;
58384;SDS011;44185;47.844;8.966;2022-12-24T09:18:22;1.88;;;1.00;;
58384;SDS011;44185;47.844;8.966;2022-12-24T09:20:47;3.50;;;1.13;;
58384;SDS011;44185;47.844;8.966;2022-12-24T09:23:13;2.58;;;1.10;;
58384;SDS011;44185;47.844;8.966;2022-12-24T09:25:39;1.27;;;0.70;;
58384;SDS011;44185;47.844;8.966;2022-12-24T09:28:05;2.10;;;0.90;;
58384;SDS011;44185;47.844;8.966;2022-12-24T09:30:32;2.72;;;1.13;;
58384;SDS011;44185;47.844;8.966;2022-12-24T09:32:57;2.13;;;1.10;;
58384;SDS011;44185;47.844;8.966;2022-12-24T09:35:23;2.33;;;1.30;;
58384;SDS011;44185;47.844;8.966;2022-12-24T09:37:48;2.20;;;1.30;;
58384;SDS011;44185;47.844;8.966;2022-12-24T09:40:17;3.42;;;1.58;;
58384;SDS011;44185;47.844;8.966;2022-12-24T09:42:50;5.40;;;1.63;;
58384;SDS011;44185;47.844;8.966;2022-12-24T09:45:17;3.35;;;1.17;;
58384;SDS011;44185;47.844;8.966;2022-12-24T09:47:48;3.70;;;1.05;;
58384;SDS011;44185;47.844;8.966;2022-12-24T09:52:50;5.00;;;1.20;;
58384;SDS011;44185;47.844;8.966;2022-12-24T09:55:19;1.35;;;0.85;;
58384;SDS011;44185;47.844;8.966;2022-12-24T09:57:50;5.68;;;1.33;;
58384;SDS011;44185;47.844;8.966;2022-12-24T10:00:19;1.30;;;0.95;;
58384;SDS011;44185;47.844;8.966;2022-12-24T10:02:48;2.53;;;1.40;;
58384;SDS011;44185;47.844;8.966;2022-12-24T10:05:14;2.45;;;1.17;;
58384;SDS011;44185;47.844;8.966;2022-12-24T10:07:43;1.63;;;1.15;;
58384;SDS011;44185;47.844;8.966;2022-12-24T10:10:17;1.17;;;1.02;;
58384;SDS011;44185;47.844;8.966;2022-12-24T10:12:53;3.05;;;1.00;;
58384;SDS011;44185;47.844;8.966;2022-12-24T10:15:29;1.45;;;1.20;;
58384;SDS011;44185;47.844;8.966;2022-12-24T10:18:05;5.88;;;1.90;;
58384;SDS011;44185;47.844;8.966;2022-12-24T10:20:42;4.75;;;1.65;;
58384;SDS011;44185;47.844;8.966;2022-12-24T10:23:14;2.72;;;1.25;;
58384;SDS011;44185;47.844;8.966;2022-12-24T10:25:47;6.10;;;1.85;;
58384;SDS011;44185;47.844;8.966;2022-12-24T10:28:18;1.90;;;1.42;;
58384;SDS011;44185;47.844;8.966;2022-12-24T10:30:48;5.60;;;1.80;;
58384;SDS011;44185;47.844;8.966;2022-12-24T10:33:24;2.45;;;1.42;;
58384;SDS011;44185;47.844;8.966;2022-12-24T10:35:54;1.15;;;0.88;;
58384;SDS011;44185;47.844;8.966;2022-12-24T10:38:22;2.17;;;1.25;;
58384;SDS011;44185;47.844;8.966;2022-12-24T10:40:48;1.42;;;1.10;;
58384;SDS011;44185;47.844;8.966;2022-12-24T10:43:18;0.43;;;0.40;;
58384;SDS011;44185;47.844;8.966;2022-12-24T10:45:45;2.42;;;1.42;;
58384;SDS011;44185;47.844;8.966;2022-12-24T10:48:14;3.67;;;1.47;;
58384;SDS011;44185;47.844;8.966;2022-12-24T10:50:49;3.17;;;1.20;;
58384;SDS011;44185;47.844;8.966;2022-12-24T10:53:20;2.78;;;1.65;;
58384;SDS011;44185;47.844;8.966;2022-12-24T10:55:59;2.05;;;1.13;;
58384;SDS011;44185;47.844;8.966;2022-12-24T10:58:26;1.58;;;1.08;;
58384;SDS011;44185;47.844;8.966;2022-12-24T11:00:52;1.85;;;1.08;;
58384;SDS011;44185;47.844;8.966;2022-12-24T11:03:20;2.20;;;1.05;;
58384;SDS011;44185;47.844;8.966;2022-12-24T11:05:59;1.17;;;0.60;;
58384;SDS011;44185;47.844;8.966;2022-12-24T11:08:26;1.75;;;0.93;;
58384;SDS011;44185;47.844;8.966;2022-12-24T11:10:53;1.23;;;0.80;;
58384;SDS011;44185;47.844;8.966;2022-12-24T11:13:21;4.40;;;1.33;;
58384;SDS011;44185;47.844;8.966;2022-12-24T11:15:51;2.90;;;1.58;;
58384;SDS011;44185;47.844;8.966;2022-12-24T11:18:25;3.42;;;1.60;;
58384;SDS011;44185;47.844;8.966;2022-12-24T11:20:51;4.47;;;2.00;;
58384;SDS011;44185;47.844;8.966;2022-12-24T11:23:18;2.78;;;1.60;;
58384;SDS011;44185;47.844;8.966;2022-12-24T11:25:45;1.50;;;0.95;;
58384;SDS011;44185;47.844;8.966;2022-12-24T11:28:18;1.08;;;0.75;;
58384;SDS011;44185;47.844;8.966;2022-12-24T11:30:53;1.23;;;0.70;;
58384;SDS011;44185;47.844;8.966;2022-12-24T11:33:21;1.80;;;1.52;;
58384;SDS011;44185;47.844;8.966;2022-12-24T11:35:47;1.00;;;0.95;;
58384;SDS011;44185;47.844;8.966;2022-12-24T11:38:19;1.20;;;0.77;;
58384;SDS011;44185;47.844;8.966;2022-12-24T11:40:57;3.50;;;1.60;;
58384;SDS011;44185;47.844;8.966;2022-12-24T11:43:24;1.80;;;0.52;;
58384;SDS011;44185;47.844;8.966;2022-12-24T11:45:51;1.98;;;0.80;;
58384;SDS011;44185;47.844;8.966;2022-12-24T11:48:23;1.38;;;0.80;;
58384;SDS011;44185;47.844;8.966;2022-12-24T11:50:54;1.30;;;0.60;;
58384;SDS011;44185;47.844;8.966;2022-12-24T11:53:23;1.55;;;0.77;;
58384;SDS011;44185;47.844;8.966;2022-12-24T11:55:54;0.95;;;0.68;;
58384;SDS011;44185;47.844;8.966;2022-12-24T11:58:22;0.90;;;0.60;;
58384;SDS011;44185;47.844;8.966;2022-12-24T12:00:57;3.65;;;1.05;;
58384;SDS011;44185;47.844;8.966;2022-12-24T12:03:30;0.50;;;0.50;;
58384;SDS011;44185;47.844;8.966;2022-12-24T12:06:00;0.40;;;0.38;;
58384;SDS011;44185;47.844;8.966;2022-12-24T12:08:29;0.15;;;0.15;;
58384;SDS011;44185;47.844;8.966;2022-12-24T12:10:57;0.28;;;0.28;;
58384;SDS011;44185;47.844;8.966;2022-12-24T12:13:25;3.10;;;0.77;;
58384;SDS011;44185;47.844;8.966;2022-12-24T12:16:00;2.40;;;1.58;;
58384;SDS011;44185;47.844;8.966;2022-12-24T12:18:31;3.08;;;1.38;;
58384;SDS011;44185;47.844;8.966;2022-12-24T12:21:01;2.60;;;1.40;;
58384;SDS011;44185;47.844;8.966;2022-12-24T12:23:32;0.98;;;0.80;;
58384;SDS011;44185;47.844;8.966;2022-12-24T12:26:00;0.50;;;0.50;;
58384;SDS011;44185;47.844;8.966;2022-12-24T12:28:31;3.20;;;0.90;;
58384;SDS011;44185;47.844;8.966;2022-12-24T12:31:03;1.48;;;0.80;;
58384;SDS011;44185;47.844;8.966;2022-12-24T12:33:36;1.20;;;0.63;;
58384;SDS011;44185;47.844;8.966;2022-12-24T12:36:05;3.65;;;0.85;;
58384;SDS011;44185;47.844;8.966;2022-12-24T12:38:35;1.25;;;1.00;;
58384;SDS011;44185;47.844;8.966;2022-12-24T12:41:05;1.63;;;0.77;;
58384;SDS011;44185;47.844;8.966;2022-12-24T12:43:49;0.75;;;0.60;;
58384;SDS011;44185;47.844;8.966;2022-12-24T12:46:36;1.50;;;0.82;;
58384;SDS011;44185;47.844;8.966;2022-12-24T12:49:17;1.00;;;0.70;;
58384;SDS011;44185;47.844;8.966;2022-12-24T12:51:53;1.35;;;0.60;;
58384;SDS011;44185;47.844;8.966;2022-12-24T12:54:34;2.05;;;0.60;;
58384;SDS011;44185;47.844;8.966;2022-12-24T12:57:15;0.95;;;0.80;;
58384;SDS011;44185;47.844;8.966;2022-12-24T12:59:46;0.63;;;0.63;;
58384;SDS011;44185;47.844;8.966;2022-12-24T13:05:33;0.65;;;0.50;;
58384;SDS011;44185;47.844;8.966;2022-12-24T13:08:21;1.95;;;0.70;;
58384;SDS011;44185;47.844;8.966;2022-12-24T13:11:07;1.17;;;0.60;;
58384;SDS011;44185;47.844;8.966;2022-12-24T13:13:55;1.23;;;1.13;;
58384;SDS011;44185;47.844;8.966;2022-12-24T13:19:31;4.97;;;1.20;;
58384;SDS011;44185;47.844;8.966;2022-12-24T13:22:02;3.08;;;0.98;;
58384;SDS011;44185;47.844;8.966;2022-12-24T13:24:29;1.05;;;0.82;;
58384;SDS011;44185;47.844;8.966;2022-12-24T13:27:00;1.10;;;1.00;;
58384;SDS011;44185;47.844;8.966;2022-12-24T13:29:38;2.45;;;0.70;;
58384;SDS011;44185;47.844;8.966;2022-12-24T13:35:03;1.15;;;0.60;;
58384;SDS011;44185;47.844;8.966;2022-12-24T13:37:52;0.75;;;0.70;;
58384;SDS011;44185;47.844;8.966;2022-12-24T13:40:21;0.98;;;0.68;;
58384;SDS011;44185;47.844;8.966;2022-12-24T13:42:50;0.80;;;0.80;;
58384;SDS011;44185;47.844;8.966;2022-12-24T13:45:40;2.13;;;1.23;;
58384;SDS011;44185;47.844;8.966;2022-12-24T13:50:57;1.80;;;1.30;;
58384;SDS011;44185;47.844;8.966;2022-12-24T13:53:26;2.93;;;1.20;;
58384;SDS011;44185;47.844;8.966;2022-12-24T13:55:54;1.02;;;0.75;;
58384;SDS011;44185;47.844;8.966;2022-12-24T13:58:28;1.15;;;0.65;;
58384;SDS011;44185;47.844;8.966;2022-12-24T14:00:56;0.50;;;0.50;;
58384;SDS011;44185;47.844;8.966;2022-12-24T14:03:25;1.77;;;0.70;;
58384;SDS011;44185;47.844;8.966;2022-12-24T14:05:54;2.03;;;0.77;;
58384;SDS011;44185;47.844;8.966;2022-12-24T14:08:36;1.17;;;0.80;;
58384;SDS011;44185;47.844;8.966;2022-12-24T14:11:08;0.70;;;0.60;;
58384;SDS011;44185;47.844;8.966;2022-12-24T14:16:49;1.13;;;0.60;;
58384;SDS011;44185;47.844;8.966;2022-12-24T14:19:18;0.40;;;0.40;;
58384;SDS011;44185;47.844;8.966;2022-12-24T14:21:48;1.47;;;0.60;;
58384;SDS011;44185;47.844;8.966;2022-12-24T14:24:20;1.80;;;0.50;;
58384;SDS011;44185;47.844;8.966;2022-12-24T14:26:48;0.47;;;0.47;;
58384;SDS011;44185;47.844;8.966;2022-12-24T14:31:49;0.40;;;0.40;;
58384;SDS011;44185;47.844;8.966;2022-12-24T14:34:15;0.90;;;0.77;;
58384;SDS011;44185;47.844;8.966;2022-12-24T14:36:41;1.80;;;0.70;;
58384;SDS011;44185;47.844;8.966;2022-12-24T14:39:08;1.85;;;1.15;;
58384;SDS011;44185;47.844;8.966;2022-12-24T14:41:44;1.17;;;0.88;;
58384;SDS011;44185;47.844;8.966;2022-12-24T14:44:17;1.42;;;0.60;;
58384;SDS011;44185;47.844;8.966;2022-12-24T14:46:51;3.50;;;0.75;;
58384;SDS011;44185;47.844;8.966;2022-12-24T14:49:23;0.80;;;0.55;;
58384;SDS011;44185;47.844;8.966;2022-12-24T14:51:59;0.65;;;0.65;;
58384;SDS011;44185;47.844;8.966;2022-12-24T14:54:33;0.47;;;0.47;;
58384;SDS011;44185;47.844;8.966;2022-12-24T14:57:12;3.63;;;0.88;;
58384;SDS011;44185;47.844;8.966;2022-12-24T14:59:44;1.33;;;0.80;;
58384;SDS011;44185;47.844;8.966;2022-12-24T15:02:28;0.52;;;0.52;;
58384;SDS011;44185;47.844;8.966;2022-12-24T15:05:02;0.55;;;0.55;;
58384;SDS011;44185;47.844;8.966;2022-12-24T15:07:31;2.05;;;0.70;;
58384;SDS011;44185;47.844;8.966;2022-12-24T15:09:58;0.85;;;0.85;;
58384;SDS011;44185;47.844;8.966;2022-12-24T15:12:25;1.55;;;0.98;;
58384;SDS011;44185;47.844;8.966;2022-12-24T15:14:52;0.80;;;0.57;;
58384;SDS011;44185;47.844;8.966;2022-12-24T15:17:17;0.40;;;0.40;;